Indianapolis International Airport
KIND : now visible

Airfield :











YOU CAN JOIN US ON...

 
LOGIN :

Register | Disclaimer

   EN    FR    IT 

 









Legend :    VFR   Marginal VFR   IFR   Intensive IFR   Very Intensive IFR
Visi :
Ceiling :
>= 8 km
>= 3000ft
5 to 8 km
1000 to 3000 ft
1500m to 5 km
500 to 1000 ft
800 to 1500m
200 to 500 ft
< 800m
< 200 ft
Symbols :   Thunderstorms  Fog  Heavy snow  Heavy precipitations  Wind > 20 kt






- Airport Elevation : 797 ft
- IATA code : IND


KIND - Indianapolis International

CURRENT METAR :
  • 140054Z 06004KT 10SM SCT090 OVC130 04/01 A2984 RMK AO2 SLP109 T00440011

EXPIRED METARs :
  • 132354Z 03003KT 10SM FEW110 OVC140 05/02 A2986 RMK AO2 SLP119 T00500017 10067 20044 56006
  • 132254Z 10004KT 10SM SCT090 BKN160 05/01 A2987 RMK AO2 SLP120 T00500011

TAF KIND
Valid from the 14 at 00:00 until the 15 at 06:00 UTC


132336Z 1400/1506 10004KT P6SM SCT090 BKN150
FM140800 VRB03KT P6SM VCSH OVC019
FM141000 VRB03KT P6SM OVC009
FM141800 28008KT P6SM OVC028



MET'MAP, your aeronautical weather chart ! - Copyright ORBIFLY December 2007 - Disclaimer

ORBIFLY MET'MAP TEAM :

Programming & Development : Alexandra Zaïnal
Concept & original design : Baudouin d'Aumeries
Assistance for programming : Marc-Olivier Méhu
Technical & hardware support : Manuel Goepfert

Contact : metmap@orbifly.com




SOURCES & CREDITS :

   NOAA       Earth
Advisory